createdAt,value
2018-12-18T00:00:50.956Z,95.38
2018-12-18T00:01:50.934Z,95.32
2018-12-18T00:02:51.098Z,95.49
2018-12-18T00:03:50.977Z,95.34
2018-12-18T00:04:50.922Z,95.37
2018-12-18T00:05:51.012Z,95.24
2018-12-18T00:06:50.989Z,95.17
2018-12-18T00:07:50.988Z,95.28
2018-12-18T00:08:50.938Z,95.42
2018-12-18T00:09:50.987Z,95.33
2018-12-18T00:10:50.929Z,95.31
2018-12-18T00:11:51.134Z,95.25
2018-12-18T00:12:50.938Z,95.28
2018-12-18T00:13:50.984Z,95.35
2018-12-18T00:14:51.156Z,95.39
2018-12-18T00:15:51.366Z,95.44
2018-12-18T00:16:51.194Z,95.26
2018-12-18T00:17:51.329Z,95.28
2018-12-18T00:18:50.909Z,95.28
2018-12-18T00:19:51.215Z,95.25
2018-12-18T00:20:50.992Z,95.23
2018-12-18T00:21:51.075Z,95.27
2018-12-18T00:22:50.956Z,95.28
2018-12-18T00:23:51.146Z,95.32
2018-12-18T00:24:51.286Z,95.26
2018-12-18T00:25:50.903Z,95.35
2018-12-18T00:26:51.062Z,95.12
2018-12-18T00:27:51.044Z,95.23
2018-12-18T00:28:50.906Z,95.22
2018-12-18T00:29:51.259Z,95.18
2018-12-18T00:30:51.043Z,95.14
2018-12-18T00:31:51.095Z,95.14
2018-12-18T00:32:50.872Z,95.22
2018-12-18T00:33:50.977Z,95.2
2018-12-18T00:34:51.086Z,95.15
2018-12-18T00:35:50.971Z,95.17
2018-12-18T00:36:51.713Z,95.32
2018-12-18T00:37:51.159Z,95.64
2018-12-18T00:38:51.016Z,95.59
2018-12-18T00:39:51.697Z,95.52
2018-12-18T00:40:51.239Z,95.45
2018-12-18T00:41:51.012Z,95.38
2018-12-18T00:42:51.100Z,95.41
2018-12-18T00:43:51.217Z,95.41
2018-12-18T00:44:51.238Z,95.27
2018-12-18T00:45:51.220Z,95.15
2018-12-18T00:46:51.132Z,95.2
2018-12-18T00:47:51.320Z,95.17
2018-12-18T00:48:51.002Z,95.2
2018-12-18T00:49:50.945Z,95.18
2018-12-18T00:50:51.041Z,95.26
2018-12-18T00:51:51.047Z,95.37
2018-12-18T00:52:51.187Z,95.31
2018-12-18T00:53:50.922Z,95.22
2018-12-18T00:54:50.902Z,95.25
2018-12-18T00:55:50.825Z,95.07
2018-12-18T00:56:50.900Z,95.04
2018-12-18T00:57:51.068Z,95
2018-12-18T00:58:50.907Z,94.99
2018-12-18T00:59:51.047Z,95.01
2018-12-18T01:00:50.835Z,95.1
2018-12-18T01:01:50.993Z,95.04
2018-12-18T01:02:50.852Z,95.11
2018-12-18T01:03:52.857Z,95.18
2018-12-18T01:04:50.933Z,95.16
2018-12-18T01:05:50.989Z,95.42
2018-12-18T01:06:51.227Z,95.42
2018-12-18T01:07:53.356Z,95.42
2018-12-18T01:08:50.909Z,95.27
2018-12-18T01:09:51.018Z,95.29
2018-12-18T01:10:50.934Z,95.31
2018-12-18T01:11:50.958Z,95.48
2018-12-18T01:12:51.546Z,95.45
2018-12-18T01:13:50.983Z,95.49
2018-12-18T01:14:50.816Z,95.37
2018-12-18T01:15:50.957Z,95.37
2018-12-18T01:16:51.019Z,95.29
2018-12-18T01:17:51.643Z,95.33
2018-12-18T01:18:51.332Z,95.27
2018-12-18T01:19:50.916Z,95.35
2018-12-18T01:20:50.957Z,95.33
2018-12-18T01:21:50.896Z,95.32
2018-12-18T01:22:50.883Z,95.26
2018-12-18T01:23:50.819Z,95.2
2018-12-18T01:24:51.000Z,95.18
2018-12-18T01:25:50.880Z,95.22
2018-12-18T01:26:50.862Z,95.2
2018-12-18T01:27:50.897Z,95.21
2018-12-18T01:28:50.915Z,95.15
2018-12-18T01:29:50.905Z,95.21
2018-12-18T01:30:50.887Z,95.16
2018-12-18T01:31:50.894Z,95.11
2018-12-18T01:32:50.928Z,95.18
2018-12-18T01:33:50.930Z,95.17
2018-12-18T01:34:50.872Z,95.05
2018-12-18T01:35:50.759Z,95.11
2018-12-18T01:36:50.908Z,95.02
2018-12-18T01:37:50.939Z,95.02
2018-12-18T01:38:50.931Z,95.08
2018-12-18T01:39:50.883Z,95.11
2018-12-18T01:40:50.884Z,95.06
2018-12-18T01:41:50.760Z,95.02
2018-12-18T01:42:50.789Z,95.04
2018-12-18T01:43:50.948Z,94.99
2018-12-18T01:44:50.786Z,94.92
2018-12-18T01:45:50.882Z,94.88
2018-12-18T01:46:50.861Z,94.94
2018-12-18T01:47:50.798Z,94.92
2018-12-18T01:48:51.066Z,94.95
2018-12-18T01:49:50.892Z,94.9
2018-12-18T01:50:51.004Z,94.92
2018-12-18T01:51:50.960Z,94.85
2018-12-18T01:52:50.815Z,94.75
2018-12-18T01:53:50.911Z,94.37
2018-12-18T01:54:50.988Z,93.99
2018-12-18T01:55:51.093Z,93.97
2018-12-18T01:56:50.738Z,94.03
2018-12-18T01:57:50.898Z,93.96
2018-12-18T01:58:50.755Z,93.87
2018-12-18T01:59:50.840Z,94.03
2018-12-18T02:00:50.948Z,94.21
2018-12-18T02:01:50.748Z,94.34
2018-12-18T02:02:51.600Z,94.26
2018-12-18T02:03:50.796Z,94.28
2018-12-18T02:04:50.996Z,94.43
2018-12-18T02:05:51.013Z,94.46
2018-12-18T02:06:50.710Z,94.58
2018-12-18T02:07:51.123Z,94.51
2018-12-18T02:08:50.819Z,94.54
2018-12-18T02:09:51.003Z,94.54
2018-12-18T02:10:50.937Z,94.53
2018-12-18T02:11:51.015Z,94.41
2018-12-18T02:12:50.732Z,94.48
2018-12-18T02:13:50.781Z,94.43
2018-12-18T02:14:50.735Z,94.53
2018-12-18T02:15:50.711Z,94.47
2018-12-18T02:16:50.945Z,94.41
2018-12-18T02:17:50.965Z,94.36
2018-12-18T02:18:50.965Z,94.3
2018-12-18T02:19:51.126Z,94.16
2018-12-18T02:20:50.980Z,93.92
2018-12-18T02:21:50.917Z,93.59
2018-12-18T02:22:50.996Z,93.63
2018-12-18T02:23:50.706Z,93.68
2018-12-18T02:24:51.106Z,93.85
2018-12-18T02:25:50.855Z,93.95
2018-12-18T02:26:50.729Z,93.93
2018-12-18T02:27:50.950Z,93.95
2018-12-18T02:28:50.902Z,93.98
2018-12-18T02:29:51.062Z,93.96
2018-12-18T02:30:50.858Z,93.77
2018-12-18T02:31:51.008Z,93.75
2018-12-18T02:32:50.721Z,93.64
2018-12-18T02:33:50.823Z,93.36
2018-12-18T02:34:50.794Z,93.13
2018-12-18T02:35:50.736Z,93.2
2018-12-18T02:36:50.932Z,93.19
2018-12-18T02:37:50.892Z,92.85
2018-12-18T02:38:50.908Z,93.24
2018-12-18T02:39:51.171Z,93.45
2018-12-18T02:40:50.731Z,93.71
2018-12-18T02:41:50.993Z,93.64
2018-12-18T02:42:51.000Z,93.81
2018-12-18T02:43:51.123Z,93.83
2018-12-18T02:44:50.698Z,93.87
2018-12-18T02:45:51.511Z,93.8
2018-12-18T02:46:50.809Z,93.79
2018-12-18T02:47:51.518Z,93.82
2018-12-18T02:48:50.905Z,93.89
2018-12-18T02:49:50.789Z,93.94
2018-12-18T02:50:50.981Z,93.75
2018-12-18T02:51:50.684Z,93.56
2018-12-18T02:52:50.857Z,93.63
2018-12-18T02:53:50.995Z,93.61
2018-12-18T02:54:50.662Z,93.73
2018-12-18T02:55:50.970Z,93.63
2018-12-18T02:56:50.662Z,93.7
2018-12-18T02:57:50.780Z,93.73
2018-12-18T02:58:50.701Z,93.58
2018-12-18T02:59:50.769Z,93.44
2018-12-18T03:00:50.666Z,93.81
2018-12-18T03:01:51.008Z,93.8
2018-12-18T03:02:50.691Z,94.11
2018-12-18T03:03:50.687Z,94.07
2018-12-18T03:04:50.876Z,93.89
2018-12-18T03:05:50.732Z,93.38
2018-12-18T03:06:50.682Z,93.8
2018-12-18T03:07:50.669Z,93.85
2018-12-18T03:08:50.694Z,93.8
2018-12-18T03:09:50.704Z,93.95
2018-12-18T03:10:50.703Z,93.74
2018-12-18T03:11:50.688Z,93.69
2018-12-18T03:12:50.817Z,93.71
2018-12-18T03:13:50.679Z,93.76
2018-12-18T03:14:50.679Z,93.9
2018-12-18T03:15:50.646Z,93.58
2018-12-18T03:16:50.774Z,93.79
2018-12-18T03:17:50.732Z,93.64
2018-12-18T03:18:50.713Z,93.6
2018-12-18T03:19:50.675Z,93.69
2018-12-18T03:20:50.679Z,93.7
2018-12-18T03:21:50.649Z,93.77
2018-12-18T03:22:50.658Z,93.83
2018-12-18T03:23:50.759Z,93.71
2018-12-18T03:24:50.664Z,93.74
2018-12-18T03:25:50.692Z,93.77
2018-12-18T03:26:50.966Z,93.75
2018-12-18T03:27:50.817Z,93.76
2018-12-18T03:28:50.990Z,93.82
2018-12-18T03:29:51.464Z,93.85
2018-12-18T03:30:50.839Z,93.88
2018-12-18T03:31:51.138Z,93.9
2018-12-18T03:32:50.666Z,93.99
2018-12-18T03:33:50.934Z,93.92
2018-12-18T03:34:50.773Z,94.05
2018-12-18T03:35:50.760Z,94.02
2018-12-18T03:36:50.953Z,93.97
2018-12-18T03:37:50.673Z,94.03
2018-12-18T03:38:50.957Z,94.15
2018-12-18T03:39:50.666Z,94.05
2018-12-18T03:40:50.634Z,94.03
2018-12-18T03:41:51.006Z,94.05
2018-12-18T03:42:50.896Z,94.1
2018-12-18T03:43:50.914Z,94.29
2018-12-18T03:44:50.813Z,94.26
2018-12-18T03:45:50.851Z,94.16
2018-12-18T03:46:50.865Z,94.29
2018-12-18T03:47:50.681Z,94.25
2018-12-18T03:48:50.606Z,94.49
2018-12-18T03:49:50.724Z,94.38
2018-12-18T03:50:50.914Z,94.42
2018-12-18T03:51:50.597Z,94.59
2018-12-18T03:52:50.829Z,94.52
2018-12-18T03:53:50.794Z,94.66
2018-12-18T03:54:50.605Z,94.65
2018-12-18T03:55:50.709Z,94.69
2018-12-18T03:56:50.715Z,94.7
2018-12-18T03:57:50.731Z,94.69
2018-12-18T03:58:50.858Z,94.66
2018-12-18T03:59:50.892Z,94.6
2018-12-18T04:00:51.425Z,94.53
2018-12-18T04:01:50.611Z,94.32
2018-12-18T04:02:50.820Z,94.36
2018-12-18T04:03:50.844Z,94.34
2018-12-18T04:04:50.778Z,94.28
2018-12-18T04:05:50.939Z,94.22
2018-12-18T04:06:50.915Z,94.16
2018-12-18T04:07:50.599Z,94.19
2018-12-18T04:08:50.568Z,94.21
2018-12-18T04:09:51.001Z,94.19
2018-12-18T04:10:50.950Z,94.13
2018-12-18T04:11:50.720Z,94.1
2018-12-18T04:12:50.624Z,94.01
2018-12-18T04:13:50.648Z,94
2018-12-18T04:14:50.646Z,93.98
2018-12-18T04:15:50.610Z,93.86
2018-12-18T04:16:50.604Z,93.84
2018-12-18T04:17:50.583Z,93.79
2018-12-18T04:18:50.564Z,93.85
2018-12-18T04:19:50.563Z,93.81
2018-12-18T04:20:50.875Z,93.72
2018-12-18T04:21:50.943Z,93.6
2018-12-18T04:22:50.732Z,93.53
2018-12-18T04:23:50.626Z,93.29
2018-12-18T04:24:50.579Z,93.35
2018-12-18T04:25:50.562Z,93.39
2018-12-18T04:26:50.645Z,93.5
2018-12-18T04:27:50.773Z,93.44
2018-12-18T04:28:50.789Z,93.47
2018-12-18T04:29:50.619Z,93.39
2018-12-18T04:30:50.601Z,93.37
2018-12-18T04:31:50.675Z,93.44
2018-12-18T04:32:50.565Z,93.51
2018-12-18T04:33:50.923Z,93.42
2018-12-18T04:34:50.705Z,93.51
2018-12-18T04:35:50.553Z,93.5
2018-12-18T04:36:50.970Z,93.4
2018-12-18T04:37:50.593Z,93.36
2018-12-18T04:38:50.750Z,93.12
2018-12-18T04:39:50.554Z,93.03
2018-12-18T04:40:50.766Z,93.14
2018-12-18T04:41:50.529Z,93.12
2018-12-18T04:42:50.603Z,93.22
2018-12-18T04:43:50.594Z,93.25
2018-12-18T04:44:50.559Z,93.24
2018-12-18T04:45:50.548Z,93.16
2018-12-18T04:46:50.530Z,93.18
2018-12-18T04:47:50.522Z,93.15
2018-12-18T04:48:50.686Z,93.12
2018-12-18T04:49:50.558Z,93.23
2018-12-18T04:50:50.617Z,93.17
2018-12-18T04:51:50.522Z,93.11
2018-12-18T04:52:50.648Z,93.13
2018-12-18T04:53:50.683Z,92.91
2018-12-18T04:54:50.516Z,92.97
2018-12-18T04:55:50.655Z,92.96
2018-12-18T04:56:50.677Z,92.95
2018-12-18T04:57:50.606Z,92.85
2018-12-18T04:58:50.670Z,92.89
2018-12-18T04:59:50.584Z,92.85
2018-12-18T05:00:50.502Z,92.84
2018-12-18T05:01:50.879Z,92.87
2018-12-18T05:02:50.617Z,92.92
2018-12-18T05:03:50.646Z,92.87
2018-12-18T05:04:50.786Z,92.81
2018-12-18T05:05:50.745Z,92.82
2018-12-18T05:06:50.622Z,92.68
2018-12-18T05:07:50.760Z,92.82
2018-12-18T05:08:50.627Z,92.32
2018-12-18T05:09:50.498Z,92.23
2018-12-18T05:10:50.524Z,92.26
2018-12-18T05:11:50.715Z,91.54
2018-12-18T05:12:50.908Z,91.5
2018-12-18T05:13:50.561Z,91.95
2018-12-18T05:14:50.725Z,92.38
2018-12-18T05:15:50.485Z,92.58
2018-12-18T05:16:50.707Z,92.67
2018-12-18T05:17:50.506Z,92.71
2018-12-18T05:18:50.508Z,92.61
2018-12-18T05:19:50.875Z,92.74
2018-12-18T05:20:50.668Z,92.77
2018-12-18T05:21:51.298Z,92.8
2018-12-18T05:22:50.581Z,92.68
2018-12-18T05:23:50.602Z,92.3
2018-12-18T05:24:50.666Z,92.28
2018-12-18T05:25:50.885Z,91.93
2018-12-18T05:26:50.470Z,91.8
2018-12-18T05:27:50.476Z,92.04
2018-12-18T05:28:50.729Z,92.27
2018-12-18T05:29:50.595Z,92.3
2018-12-18T05:30:50.271Z,92.41
2018-12-18T05:31:50.618Z,92.25
2018-12-18T05:32:50.580Z,92.29
2018-12-18T05:33:50.644Z,92.38
2018-12-18T05:34:57.275Z,92.16
2018-12-18T05:35:50.466Z,91.9
2018-12-18T05:36:51.312Z,91.98
2018-12-18T05:37:50.626Z,92.17
2018-12-18T05:38:50.764Z,92.43
2018-12-18T05:39:50.846Z,92.41
2018-12-18T05:40:50.906Z,92.43
2018-12-18T05:41:50.627Z,92.53
2018-12-18T05:42:50.650Z,92.51
2018-12-18T05:43:50.590Z,92.62
2018-12-18T05:44:50.503Z,92.39
2018-12-18T05:45:50.639Z,92.3
2018-12-18T05:46:50.481Z,92.25
2018-12-18T05:47:50.533Z,92.27
2018-12-18T05:48:51.292Z,92.36
2018-12-18T05:49:50.688Z,92.4
2018-12-18T05:50:50.537Z,92.28
2018-12-18T05:51:50.656Z,92.33
2018-12-18T05:52:50.568Z,92.29
2018-12-18T05:53:50.561Z,92.39
2018-12-18T05:54:50.515Z,92.35
2018-12-18T05:55:50.538Z,92.51
2018-12-18T05:56:50.446Z,92.62
2018-12-18T05:57:50.428Z,92.87
2018-12-18T05:58:51.249Z,93.05
2018-12-18T05:59:50.860Z,93.35
2018-12-18T06:00:50.432Z,93.51
2018-12-18T06:01:50.999Z,93.79
2018-12-18T06:02:50.492Z,94.24
2018-12-18T06:03:50.702Z,94.38
2018-12-18T06:04:50.485Z,94.43
2018-12-18T06:05:51.000Z,94.49
2018-12-18T06:06:50.648Z,94.72
2018-12-18T06:07:50.459Z,94.75
2018-12-18T06:08:50.436Z,94.91
2018-12-18T06:09:50.593Z,94.72
2018-12-18T06:10:50.573Z,94.67
2018-12-18T06:11:50.682Z,94.62
2018-12-18T06:12:50.808Z,94.55
2018-12-18T06:13:50.494Z,94.62
2018-12-18T06:14:50.525Z,94.61
2018-12-18T06:15:50.406Z,94.72
2018-12-18T06:16:50.588Z,94.93
2018-12-18T06:17:50.400Z,94.88
2018-12-18T06:18:50.398Z,94.76
2018-12-18T06:19:50.488Z,94.65
2018-12-18T06:20:50.756Z,94.75
2018-12-18T06:21:50.390Z,94.76
2018-12-18T06:22:50.378Z,94.81
2018-12-18T06:23:51.095Z,94.95
2018-12-18T06:24:50.376Z,94.94
2018-12-18T06:25:50.383Z,95.04
2018-12-18T06:26:50.360Z,94.82
2018-12-18T06:27:50.463Z,94.74
2018-12-18T06:28:50.468Z,94.5
2018-12-18T06:29:50.369Z,94.6
2018-12-18T06:30:50.501Z,94.58
2018-12-18T06:31:50.433Z,94.65
2018-12-18T06:32:50.600Z,94.58
2018-12-18T06:33:50.397Z,94.73
2018-12-18T06:34:50.408Z,95.04
2018-12-18T06:35:50.730Z,95.24
2018-12-18T06:36:50.645Z,95.3
2018-12-18T06:37:50.536Z,95.45
2018-12-18T06:38:50.659Z,95.39
2018-12-18T06:39:51.210Z,95.49
2018-12-18T06:40:50.526Z,95.46
2018-12-18T06:41:50.422Z,95.35
2018-12-18T06:42:50.373Z,95.22
2018-12-18T06:43:50.432Z,95.23
2018-12-18T06:44:50.384Z,95.33
2018-12-18T06:45:50.521Z,95.28
2018-12-18T06:46:50.459Z,95.25
2018-12-18T06:47:50.416Z,95.14
2018-12-18T06:48:50.737Z,94.99
2018-12-18T06:49:50.403Z,94.69
2018-12-18T06:50:50.505Z,94.89
2018-12-18T06:51:51.184Z,95.02
2018-12-18T06:52:50.447Z,95.03
2018-12-18T06:53:50.423Z,95.18
2018-12-18T06:54:50.807Z,95.17
2018-12-18T06:55:50.362Z,95.04
2018-12-18T06:56:50.453Z,94.84
2018-12-18T06:57:50.471Z,94.86
2018-12-18T06:58:50.360Z,95.01
2018-12-18T06:59:50.475Z,94.83
2018-12-18T07:00:50.622Z,94.83
2018-12-18T07:01:50.414Z,94.83
2018-12-18T07:02:50.726Z,94.81
2018-12-18T07:03:50.438Z,94.77
2018-12-18T07:04:50.579Z,94.7
2018-12-18T07:05:50.683Z,94.64
2018-12-18T07:06:50.671Z,94.65
2018-12-18T07:07:57.150Z,94.6
2018-12-18T07:08:50.343Z,94.56
2018-12-18T07:09:50.580Z,94.46
2018-12-18T07:10:51.073Z,94.45
2018-12-18T07:11:50.684Z,94.48
2018-12-18T07:12:50.331Z,94.42
2018-12-18T07:13:50.597Z,94.35
2018-12-18T07:14:50.448Z,94.11
2018-12-18T07:15:50.361Z,93.99
2018-12-18T07:16:50.605Z,93.99
2018-12-18T07:17:50.545Z,94.06
2018-12-18T07:18:50.602Z,94.38
2018-12-18T07:19:50.799Z,94.26
2018-12-18T07:20:50.380Z,94.12
2018-12-18T07:21:50.642Z,94.33
2018-12-18T07:22:50.348Z,94.38
2018-12-18T07:23:50.703Z,94.57
2018-12-18T07:24:50.307Z,94.74
2018-12-18T07:25:50.323Z,94.48
2018-12-18T07:26:50.556Z,94.23
2018-12-18T07:27:50.434Z,94.04
2018-12-18T07:28:50.462Z,94.08
2018-12-18T07:29:50.428Z,94.4
2018-12-18T07:30:50.357Z,94.49
2018-12-18T07:31:50.590Z,94.66
2018-12-18T07:32:50.438Z,94.5
2018-12-18T07:33:50.350Z,94.48
2018-12-18T07:34:50.580Z,94.49
2018-12-18T07:35:50.515Z,94.42
2018-12-18T07:36:51.397Z,94.46
2018-12-18T07:37:50.459Z,94.46
2018-12-18T07:38:50.334Z,94.65
2018-12-18T07:39:50.289Z,94.54
2018-12-18T07:40:50.512Z,94.56
2018-12-18T07:41:50.488Z,94.43
2018-12-18T07:42:50.266Z,94.36
2018-12-18T07:43:50.335Z,94.56
2018-12-18T07:44:50.511Z,94.38
2018-12-18T07:45:50.339Z,94.44
2018-12-18T07:46:50.521Z,94.48
2018-12-18T07:47:50.451Z,94.47
2018-12-18T07:48:50.329Z,94.31
2018-12-18T07:49:50.282Z,94.25
2018-12-18T07:50:50.310Z,94.19
2018-12-18T07:51:50.402Z,94.24
2018-12-18T07:52:50.278Z,94.12
2018-12-18T07:53:50.357Z,94.29
2018-12-18T07:54:50.756Z,94.11
2018-12-18T07:55:50.441Z,94.28
2018-12-18T07:56:50.488Z,94.31
2018-12-18T07:57:50.290Z,94.21
2018-12-18T07:58:50.236Z,94.38
2018-12-18T07:59:50.245Z,94.56
2018-12-18T08:00:50.410Z,94.52
2018-12-18T08:01:50.260Z,94.34
2018-12-18T08:02:50.370Z,94.37
2018-12-18T08:03:50.444Z,94.53
2018-12-18T08:04:50.292Z,94.73
2018-12-18T08:05:50.263Z,94.62
2018-12-18T08:06:50.288Z,94.74
2018-12-18T08:07:50.262Z,94.78
2018-12-18T08:08:50.230Z,94.64
2018-12-18T08:09:50.379Z,94.86
2018-12-18T08:10:50.430Z,94.91
2018-12-18T08:11:50.284Z,95.01
2018-12-18T08:12:50.354Z,94.87
2018-12-18T08:13:50.633Z,94.85
2018-12-18T08:14:50.332Z,94.98
2018-12-18T08:15:51.112Z,95.01
2018-12-18T08:16:50.321Z,95.05
2018-12-18T08:17:50.434Z,95.08
2018-12-18T08:18:50.259Z,95.27
2018-12-18T08:19:50.396Z,95.02
2018-12-18T08:20:50.375Z,95
2018-12-18T08:21:50.450Z,95.24
2018-12-18T08:22:50.564Z,95.31
2018-12-18T08:23:50.494Z,95.43
2018-12-18T08:24:50.560Z,95.34
2018-12-18T08:25:50.239Z,95.56
2018-12-18T08:26:50.254Z,95.38
2018-12-18T08:27:50.198Z,95.49
2018-12-18T08:28:50.617Z,95.42
2018-12-18T08:29:50.393Z,95.41
2018-12-18T08:30:50.322Z,95.72
2018-12-18T08:31:50.459Z,95.8
2018-12-18T08:32:50.325Z,95.71
2018-12-18T08:33:50.468Z,95.81
2018-12-18T08:34:50.201Z,95.8
2018-12-18T08:35:50.250Z,95.81
2018-12-18T08:36:50.195Z,95.65
2018-12-18T08:37:50.226Z,95.64
2018-12-18T08:38:51.030Z,95.5
2018-12-18T08:39:50.587Z,95.55
2018-12-18T08:40:50.299Z,95.63
2018-12-18T08:41:50.417Z,95.76
2018-12-18T08:42:50.468Z,95.52
2018-12-18T08:43:50.345Z,95.57
2018-12-18T08:44:50.294Z,95.51
2018-12-18T08:45:50.274Z,95.55
2018-12-18T08:46:50.497Z,95.39
2018-12-18T08:47:50.324Z,95.68
2018-12-18T08:48:50.197Z,95.64
2018-12-18T08:49:50.266Z,95.68
2018-12-18T08:50:51.028Z,95.66
2018-12-18T08:51:50.424Z,95.54
2018-12-18T08:52:50.237Z,95.6
2018-12-18T08:53:51.019Z,95.5
2018-12-18T08:54:50.197Z,95.56
2018-12-18T08:55:50.210Z,95.5
2018-12-18T08:56:50.231Z,95.54
2018-12-18T08:57:50.389Z,95.52
2018-12-18T08:58:50.408Z,95.46
2018-12-18T08:59:51.011Z,95.43
2018-12-18T09:00:50.264Z,95.57
2018-12-18T09:01:50.187Z,95.36
2018-12-18T09:02:50.374Z,95.67
2018-12-18T09:03:50.410Z,95.43
2018-12-18T09:04:50.202Z,95.47
2018-12-18T09:05:50.215Z,95.41
2018-12-18T09:06:50.160Z,95.17
2018-12-18T09:07:50.496Z,95.02
2018-12-18T09:08:50.449Z,94.95
2018-12-18T09:09:50.266Z,94.8
2018-12-18T09:10:50.129Z,94.95
2018-12-18T09:11:50.494Z,94.97
2018-12-18T09:12:50.405Z,94.84
2018-12-18T09:13:50.228Z,94.82
2018-12-18T09:14:50.149Z,94.81
2018-12-18T09:15:50.129Z,94.65
2018-12-18T09:16:50.375Z,94.69
2018-12-18T09:17:50.337Z,94.81
2018-12-18T09:18:50.140Z,94.87
2018-12-18T09:19:50.211Z,94.86
2018-12-18T09:20:50.138Z,94.56
2018-12-18T09:21:50.944Z,94.79
2018-12-18T09:22:50.354Z,94.68
2018-12-18T09:23:50.998Z,94.77
2018-12-18T09:24:50.727Z,94.81
2018-12-18T09:25:50.183Z,94.59
2018-12-18T09:26:50.598Z,94.37
2018-12-18T09:27:50.430Z,94.2
2018-12-18T09:28:50.195Z,93.66
2018-12-18T09:29:50.133Z,94.02
2018-12-18T09:30:50.131Z,94.08
2018-12-18T09:31:50.200Z,94.07
2018-12-18T09:32:50.154Z,94.08
2018-12-18T09:33:50.367Z,94.26
2018-12-18T09:34:50.251Z,93.96
2018-12-18T09:35:50.189Z,93.81
2018-12-18T09:36:50.116Z,93.7
2018-12-18T09:37:50.489Z,93.76
2018-12-18T09:38:50.234Z,93.73
2018-12-18T09:39:50.395Z,93.65
2018-12-18T09:40:50.221Z,93.71
2018-12-18T09:41:50.138Z,93.65
2018-12-18T09:42:50.137Z,93.39
2018-12-18T09:43:50.417Z,93.47
2018-12-18T09:44:50.144Z,93.5
2018-12-18T09:45:50.240Z,92.98
2018-12-18T09:46:50.932Z,92.67
2018-12-18T09:47:50.092Z,92.75
2018-12-18T09:48:50.141Z,92.59
2018-12-18T09:49:50.128Z,92.63
2018-12-18T09:50:50.232Z,92.44
2018-12-18T09:51:50.349Z,92.34
2018-12-18T09:52:50.140Z,92.57
2018-12-18T09:53:50.156Z,92.6
2018-12-18T09:54:50.175Z,92.38
2018-12-18T09:55:50.176Z,92.36
2018-12-18T09:56:50.194Z,92.3
2018-12-18T09:57:50.123Z,92.18
2018-12-18T09:58:50.191Z,92.02
2018-12-18T09:59:50.247Z,92.06
2018-12-18T10:00:50.389Z,92.04
2018-12-18T10:01:50.769Z,92.22
2018-12-18T10:02:50.646Z,91.62
2018-12-18T10:03:50.101Z,91.72
2018-12-18T10:04:50.232Z,92.01
2018-12-18T10:05:56.074Z,92.1
2018-12-18T10:06:50.448Z,92.22
2018-12-18T10:07:50.148Z,91.94
2018-12-18T10:08:50.390Z,91.96
2018-12-18T10:09:50.448Z,91.83
2018-12-18T10:10:50.188Z,91.86
2018-12-18T10:11:50.243Z,91.72
2018-12-18T10:12:50.090Z,91.46
2018-12-18T10:13:50.199Z,91.14
2018-12-18T10:14:50.385Z,90.83
2018-12-18T10:15:50.277Z,91.12
2018-12-18T10:16:50.130Z,91.2
2018-12-18T10:17:50.469Z,91.14
2018-12-18T10:18:50.588Z,91.08
2018-12-18T10:19:50.101Z,90.92
2018-12-18T10:20:50.108Z,91.19
2018-12-18T10:21:50.302Z,91.13
2018-12-18T10:22:50.138Z,90.98
2018-12-18T10:23:50.094Z,90.94
2018-12-18T10:24:50.154Z,90.72
2018-12-18T10:25:50.880Z,90.7
2018-12-18T10:26:50.365Z,90.65
2018-12-18T10:27:50.207Z,90.98
2018-12-18T10:28:50.299Z,90.93
2018-12-18T10:29:50.136Z,90.71
2018-12-18T10:30:50.118Z,91.08
2018-12-18T10:31:50.219Z,90.98
2018-12-18T10:32:50.141Z,90.82
2018-12-18T10:33:50.165Z,91.12
2018-12-18T10:34:50.064Z,91
2018-12-18T10:35:50.899Z,90.86
2018-12-18T10:36:50.050Z,90.77
2018-12-18T10:37:50.082Z,90.38
2018-12-18T10:38:50.121Z,90.76
2018-12-18T10:39:50.434Z,90.65
2018-12-18T10:40:50.244Z,90.1
2018-12-18T10:41:50.068Z,90.54
2018-12-18T10:42:50.087Z,90.54
2018-12-18T10:43:50.432Z,89.94
2018-12-18T10:44:50.081Z,89.63
2018-12-18T10:45:50.079Z,89.38
2018-12-18T10:46:50.072Z,89.19
2018-12-18T10:47:50.145Z,88.18
2018-12-18T10:48:50.531Z,88.72
2018-12-18T10:49:50.863Z,88.62
2018-12-18T10:50:50.277Z,88.76
2018-12-18T10:51:50.140Z,88.2
2018-12-18T10:52:50.880Z,88.13
2018-12-18T10:53:50.132Z,88.28
2018-12-18T10:54:50.186Z,88.22
2018-12-18T10:55:50.045Z,88.23
2018-12-18T10:56:50.029Z,87.42
2018-12-18T10:57:50.056Z,86.81
2018-12-18T10:58:50.605Z,87.38
2018-12-18T10:59:50.355Z,86.97
2018-12-18T11:00:50.058Z,86.51
2018-12-18T11:01:50.857Z,86.1
2018-12-18T11:02:50.379Z,86.84
2018-12-18T11:03:50.300Z,86.26
2018-12-18T11:04:50.028Z,86.25
2018-12-18T11:05:50.128Z,85.31
2018-12-18T11:06:50.129Z,86.14
2018-12-18T11:07:50.100Z,86.32
2018-12-18T11:08:50.095Z,86.2
2018-12-18T11:09:50.014Z,86.63
2018-12-18T11:10:50.061Z,87.13
2018-12-18T11:11:50.057Z,86.34
2018-12-18T11:12:50.039Z,85.81
2018-12-18T11:13:50.006Z,85.59
2018-12-18T11:14:50.079Z,85.12
2018-12-18T11:15:50.066Z,85.22
2018-12-18T11:16:50.118Z,85.04
2018-12-18T11:17:50.045Z,85.24
2018-12-18T11:18:50.001Z,85.37
2018-12-18T11:19:50.020Z,85.85
2018-12-18T11:20:50.015Z,85.04
2018-12-18T11:21:50.001Z,85.79
2018-12-18T11:22:50.010Z,85.02
2018-12-18T11:23:50.209Z,85.36
2018-12-18T11:24:50.026Z,85.17
2018-12-18T11:25:50.296Z,84.4
2018-12-18T11:26:50.236Z,84.67
2018-12-18T11:27:50.109Z,84.39
2018-12-18T11:28:50.403Z,84.2
2018-12-18T11:29:50.235Z,83.73
2018-12-18T11:30:50.112Z,84.11
2018-12-18T11:31:50.234Z,83.77
2018-12-18T11:32:50.458Z,83.38
2018-12-18T11:33:50.313Z,83.06
2018-12-18T11:34:50.062Z,83.06
2018-12-18T11:35:50.143Z,82.48
2018-12-18T11:36:50.180Z,82.84
2018-12-18T11:37:50.813Z,82.67
2018-12-18T11:38:50.322Z,82.82
2018-12-18T11:39:50.124Z,82.67
2018-12-18T11:40:50.451Z,82.62
2018-12-18T11:41:50.363Z,82.39
2018-12-18T11:42:50.070Z,81.66
2018-12-18T11:43:50.008Z,82.23
2018-12-18T11:44:49.993Z,81.42
2018-12-18T11:45:50.018Z,81.85
2018-12-18T11:46:50.251Z,82.88
2018-12-18T11:47:50.382Z,81.78
2018-12-18T11:48:50.561Z,81.23
2018-12-18T11:49:50.046Z,82.06
2018-12-18T11:50:49.974Z,82.5
2018-12-18T11:51:50.188Z,82.53
2018-12-18T11:52:50.309Z,82.67
2018-12-18T11:53:50.077Z,81.46
2018-12-18T11:54:51.119Z,81.18
2018-12-18T11:55:49.963Z,81.33
2018-12-18T11:56:50.012Z,81.8
2018-12-18T11:57:50.356Z,80.86
2018-12-18T11:58:50.065Z,80.62
2018-12-18T11:59:50.000Z,80.87
2018-12-18T12:00:50.039Z,81.42
2018-12-18T12:01:49.954Z,81.02
2018-12-18T12:02:50.010Z,81.26
2018-12-18T12:03:50.196Z,80.8
2018-12-18T12:04:49.966Z,80.83
2018-12-18T12:05:50.083Z,80.79
2018-12-18T12:06:50.189Z,80.9
2018-12-18T12:07:49.955Z,81.02
2018-12-18T12:08:50.308Z,80.84
2018-12-18T12:09:50.097Z,81.03
2018-12-18T12:10:50.019Z,81.26
2018-12-18T12:11:50.037Z,81.64
2018-12-18T12:12:50.269Z,81.34
2018-12-18T12:13:50.026Z,81.77
2018-12-18T12:14:49.998Z,82.64
2018-12-18T12:15:50.007Z,82.38
2018-12-18T12:16:50.016Z,82.25
2018-12-18T12:17:50.028Z,81.85
2018-12-18T12:18:50.367Z,82.1
2018-12-18T12:19:50.474Z,81.84
2018-12-18T12:20:50.272Z,81.91
2018-12-18T12:21:49.992Z,82
2018-12-18T12:22:50.295Z,82.06
2018-12-18T12:23:50.040Z,81.78
2018-12-18T12:24:50.206Z,81.99
2018-12-18T12:25:50.043Z,81.6
2018-12-18T12:26:49.985Z,82.23
2018-12-18T12:27:50.093Z,82.28
2018-12-18T12:28:49.920Z,82.13
2018-12-18T12:29:50.627Z,81.91
2018-12-18T12:30:50.117Z,82.12
2018-12-18T12:32:50.402Z,81.73
2018-12-18T12:33:50.277Z,81.81
2018-12-18T12:34:50.047Z,81.94
2018-12-18T12:35:50.710Z,81.83
2018-12-18T12:36:50.327Z,82.06
2018-12-18T12:37:50.136Z,81.55
2018-12-18T12:38:50.120Z,81.84
2018-12-18T12:39:49.975Z,82.19
2018-12-18T12:40:50.022Z,82.16
2018-12-18T12:41:50.071Z,81.7
2018-12-18T12:42:50.149Z,82.34
2018-12-18T12:43:49.903Z,82.02
2018-12-18T12:44:50.434Z,81.72
2018-12-18T12:45:50.184Z,81.6
2018-12-18T12:46:50.064Z,81.67
2018-12-18T12:47:50.235Z,82
2018-12-18T12:48:49.916Z,81.84
2018-12-18T12:49:50.252Z,81.82
2018-12-18T12:50:50.027Z,81.44
2018-12-18T12:51:49.898Z,81.62
2018-12-18T12:52:50.232Z,81.3
2018-12-18T12:53:50.051Z,80.85
2018-12-18T12:54:50.117Z,81.01
2018-12-18T12:55:50.121Z,81.51
2018-12-18T12:56:50.095Z,81.87